Texas General Land Office
 Texas General Land Office
 George P. Bush, Commissioner

 Oil Spill Prevention
 & Response

Texas Automated Buoy System
Real Time Ocean Observations
Supporting Oil Spill Prevention and
Response since 1995
Geochemical and Environmental Research Group

TABS Buoy R -- Texas Automated Buoy System

TABS Buoy R Conditions at 01/20/2019 15:00 UTC (01/20/2019 09:00 CST)
29° 38.1000'N   93° 38.5020'W
AA3900 DCS - sensor depth 2m
Water Depth: 32 feet (9 meters)
Speed: 18.73 cm/s (0.36 kts) Direction: 62 °T (ENE) Water Temp: 14°C (58 °F)
System Voltage: 12.3 V Signal Strength: -2.5 dB Ping Count: 134
  


IMPORTANT: Notice to Mariners


Today's Velocity Data (download)

   Date   |  Time  |   East |   North|   Speed|  Dir | WaterT |
          |  (UTC) |  (cm/s)|  (cm/s)|  (cm/s)| (°T) |  (°C)  |
==========+========+========+========+========+======+========+
01/19/2019 22:30:00    27.76    -2.14    27.84   94.4   15.1
01/19/2019 23:00:00    25.23    -3.85    25.52   98.7   15.2
01/19/2019 23:30:00    24.77     3.51    25.02   81.9   15.2
01/20/2019 00:00:00    28.13     2.87    28.28   84.2   15.1
01/20/2019 00:30:00    27.23    -2.96    27.39   96.2   15.1
01/20/2019 01:00:00    30.04    -0.91    30.05   91.7   15.1
01/20/2019 01:30:00    38.05    -2.70    38.15   94.1   15.0
01/20/2019 02:00:00    36.40     5.44    36.80   81.5   15.0
01/20/2019 02:30:00    40.84     0.50    40.84   89.3   15.0
01/20/2019 03:00:00    35.43     3.27    35.58   84.7   15.0
01/20/2019 03:30:00    41.55    -2.47    41.62   93.4   14.9
01/20/2019 04:00:00    49.88    -0.18    49.88   90.2   14.8
01/20/2019 04:30:00    44.98    14.37    47.22   72.3   14.8
01/20/2019 05:00:00    42.90    21.90    48.17   63.0   14.8
01/20/2019 05:30:00    42.78    12.15    44.47   74.1   14.8
01/20/2019 06:00:00    38.17    10.21    39.51   75.0   14.7
01/20/2019 06:30:00    35.20     6.22    35.75   80.0   14.7
01/20/2019 07:00:00    30.88     3.38    31.06   83.8   14.7
01/20/2019 07:30:00    33.90     6.23    34.47   79.6   14.7
01/20/2019 08:00:00    28.97     9.61    30.52   71.6   14.8
01/20/2019 08:30:00    29.35    10.20    31.07   70.8   14.8
01/20/2019 09:00:00    34.68    -0.22    34.68   90.4   14.8
01/20/2019 09:30:00    34.84     1.15    34.86   88.1   14.7
01/20/2019 10:00:00    24.50     4.25    24.87   80.2   14.8
01/20/2019 10:30:00    27.69     0.59    27.70   88.8   14.8
01/20/2019 11:00:00    25.98    -0.88    25.99   91.9   14.7
01/20/2019 11:30:00    22.01    -5.40    22.66  103.8   14.8
01/20/2019 12:00:00    12.57     1.40    12.65   83.6   14.7
01/20/2019 12:30:00    12.65    -5.70    13.87  114.3   14.7
01/20/2019 13:00:00     9.59    -2.52     9.92  104.7   14.7
01/20/2019 13:30:00     7.73     3.60     8.53   65.0   14.7
01/20/2019 14:00:00    11.75     3.54    12.27   73.2   14.6
01/20/2019 14:30:00    15.64    10.00    18.56   57.4   14.6
01/20/2019 15:00:00    16.51     8.84    18.73   61.8   14.5



       
 

Today's Temperature - Salinity Data     (Download)


   Date   |  Time  |   Temp |   Cond |Salinity| Density|SoundVel|
          |  (UTC) |   (°C) | (ms/cm)|        | kg/m^3 |  (m/s) |
==========+========+========+========+========+========+========+
01/19/2019 22:30:00    15.14     3.00    23.46     0.00     0.00
01/19/2019 23:00:00    15.16     3.03    23.70     0.00     0.00
01/19/2019 23:30:00    15.11     3.03    23.71     0.00     0.00
01/20/2019 00:00:00    15.10     3.03    23.71     0.00     0.00
01/20/2019 00:30:00    15.04     3.01    23.62     0.00     0.00
01/20/2019 01:00:00    15.01     3.01    23.61     0.00     0.00
01/20/2019 01:30:00    14.98     3.01    23.60     0.00     0.00
01/20/2019 02:00:00    14.96     3.01    23.61     0.00     0.00
01/20/2019 02:30:00    14.95     3.01    23.62     0.00     0.00
01/20/2019 03:00:00    14.92     3.01    23.65     0.00     0.00
01/20/2019 03:30:00    14.85     2.99    23.54     0.00     0.00
01/20/2019 04:00:00    14.71     2.85    22.36     0.00     0.00
01/20/2019 04:30:00    14.72     2.77    21.72     0.00     0.00
01/20/2019 05:00:00    14.73     2.78    21.77     0.00     0.00
01/20/2019 05:30:00    14.70     2.79    21.86     0.00     0.00
01/20/2019 06:00:00    14.61     2.81    22.15     0.00     0.00
01/20/2019 06:30:00    14.61     2.88    22.75     0.00     0.00
01/20/2019 07:00:00    14.60     2.89    22.80     0.00     0.00
01/20/2019 07:30:00    14.68     2.96    23.33     0.00     0.00
01/20/2019 08:00:00    14.80     2.98    23.49     0.00     0.00
01/20/2019 08:30:00    14.76     2.97    23.41     0.00     0.00
01/20/2019 09:00:00    14.73     2.96    23.35     0.00     0.00
01/20/2019 09:30:00    14.68     2.94    23.19     0.00     0.00
01/20/2019 10:00:00    14.73     2.94    23.14     0.00     0.00
01/20/2019 10:30:00    14.68     2.93    23.10     0.00     0.00
01/20/2019 11:00:00    14.71     2.95    23.26     0.00     0.00
01/20/2019 11:30:00    14.68     2.96    23.38     0.00     0.00
01/20/2019 12:00:00    14.74     2.96    23.30     0.00     0.00
01/20/2019 12:30:00    14.67     2.96    23.36     0.00     0.00
01/20/2019 13:00:00    14.68     2.96    23.34     0.00     0.00
01/20/2019 13:30:00    14.66     2.95    23.26     0.00     0.00
01/20/2019 14:00:00    14.56     2.94    23.28     0.00     0.00
01/20/2019 14:30:00    14.55     2.95    23.37     0.00     0.00
01/20/2019 15:00:00    14.46     2.95    23.44     0.00     0.00